sensor_id;sensor_type;location;lat;lon;timestamp;P1;durP1;ratioP1;P2;durP2;ratioP2
16385;SDS011;8302;51.154;4.456;2023-11-22T00:00:28;3.90;;;2.15;;
16385;SDS011;8302;51.154;4.456;2023-11-22T00:02:55;3.35;;;1.70;;
16385;SDS011;8302;51.154;4.456;2023-11-22T00:05:23;3.30;;;2.40;;
16385;SDS011;8302;51.154;4.456;2023-11-22T00:07:51;3.22;;;2.22;;
16385;SDS011;8302;51.154;4.456;2023-11-22T00:10:19;4.50;;;2.08;;
16385;SDS011;8302;51.154;4.456;2023-11-22T00:12:46;4.28;;;2.20;;
16385;SDS011;8302;51.154;4.456;2023-11-22T00:15:15;4.05;;;2.22;;
16385;SDS011;8302;51.154;4.456;2023-11-22T00:17:44;2.22;;;1.85;;
16385;SDS011;8302;51.154;4.456;2023-11-22T00:20:12;2.60;;;2.40;;
16385;SDS011;8302;51.154;4.456;2023-11-22T00:22:40;2.92;;;1.90;;
16385;SDS011;8302;51.154;4.456;2023-11-22T00:25:08;5.15;;;2.30;;
16385;SDS011;8302;51.154;4.456;2023-11-22T00:27:40;3.90;;;2.22;;
16385;SDS011;8302;51.154;4.456;2023-11-22T00:30:08;3.63;;;2.28;;
16385;SDS011;8302;51.154;4.456;2023-11-22T00:32:37;2.72;;;2.13;;
16385;SDS011;8302;51.154;4.456;2023-11-22T00:35:07;2.55;;;1.95;;
16385;SDS011;8302;51.154;4.456;2023-11-22T00:37:35;4.55;;;2.55;;
16385;SDS011;8302;51.154;4.456;2023-11-22T00:40:03;4.15;;;2.35;;
16385;SDS011;8302;51.154;4.456;2023-11-22T00:42:36;3.35;;;2.15;;
16385;SDS011;8302;51.154;4.456;2023-11-22T00:45:07;2.15;;;1.80;;
16385;SDS011;8302;51.154;4.456;2023-11-22T00:47:37;4.03;;;2.47;;
16385;SDS011;8302;51.154;4.456;2023-11-22T00:50:06;4.45;;;2.40;;
16385;SDS011;8302;51.154;4.456;2023-11-22T00:52:34;4.07;;;2.35;;
16385;SDS011;8302;51.154;4.456;2023-11-22T00:55:02;4.03;;;1.92;;
16385;SDS011;8302;51.154;4.456;2023-11-22T00:57:29;2.40;;;1.90;;
16385;SDS011;8302;51.154;4.456;2023-11-22T00:59:57;4.10;;;2.25;;
16385;SDS011;8302;51.154;4.456;2023-11-22T01:02:25;3.92;;;2.50;;
16385;SDS011;8302;51.154;4.456;2023-11-22T01:04:54;4.72;;;2.60;;
16385;SDS011;8302;51.154;4.456;2023-11-22T01:07:22;4.90;;;2.85;;
16385;SDS011;8302;51.154;4.456;2023-11-22T01:09:50;3.70;;;2.40;;
16385;SDS011;8302;51.154;4.456;2023-11-22T01:12:19;4.00;;;2.25;;
16385;SDS011;8302;51.154;4.456;2023-11-22T01:14:47;3.63;;;2.45;;
16385;SDS011;8302;51.154;4.456;2023-11-22T01:17:15;3.00;;;2.15;;
16385;SDS011;8302;51.154;4.456;2023-11-22T01:19:42;3.40;;;2.30;;
16385;SDS011;8302;51.154;4.456;2023-11-22T01:22:11;3.97;;;2.13;;
16385;SDS011;8302;51.154;4.456;2023-11-22T01:24:39;3.05;;;2.25;;
16385;SDS011;8302;51.154;4.456;2023-11-22T01:27:07;4.25;;;2.30;;
16385;SDS011;8302;51.154;4.456;2023-11-22T01:29:34;3.63;;;2.25;;
16385;SDS011;8302;51.154;4.456;2023-11-22T01:32:02;2.95;;;2.25;;
16385;SDS011;8302;51.154;4.456;2023-11-22T01:34:31;4.10;;;1.95;;
16385;SDS011;8302;51.154;4.456;2023-11-22T01:37:00;7.28;;;2.00;;
16385;SDS011;8302;51.154;4.456;2023-11-22T01:39:31;2.75;;;1.73;;
16385;SDS011;8302;51.154;4.456;2023-11-22T01:41:59;2.22;;;1.58;;
16385;SDS011;8302;51.154;4.456;2023-11-22T01:44:26;2.72;;;1.98;;
16385;SDS011;8302;51.154;4.456;2023-11-22T01:46:54;2.97;;;2.15;;
16385;SDS011;8302;51.154;4.456;2023-11-22T01:49:22;6.32;;;2.20;;
16385;SDS011;8302;51.154;4.456;2023-11-22T01:51:50;3.28;;;2.15;;
16385;SDS011;8302;51.154;4.456;2023-11-22T01:54:18;3.95;;;2.30;;
16385;SDS011;8302;51.154;4.456;2023-11-22T01:56:47;2.95;;;2.17;;
16385;SDS011;8302;51.154;4.456;2023-11-22T01:59:15;5.53;;;2.47;;
16385;SDS011;8302;51.154;4.456;2023-11-22T02:01:43;2.90;;;1.90;;
16385;SDS011;8302;51.154;4.456;2023-11-22T02:04:11;3.42;;;1.95;;
16385;SDS011;8302;51.154;4.456;2023-11-22T02:06:40;3.72;;;2.13;;
16385;SDS011;8302;51.154;4.456;2023-11-22T02:09:08;4.13;;;2.42;;
16385;SDS011;8302;51.154;4.456;2023-11-22T02:11:40;4.70;;;2.40;;
16385;SDS011;8302;51.154;4.456;2023-11-22T02:14:10;2.85;;;2.10;;
16385;SDS011;8302;51.154;4.456;2023-11-22T02:16:37;3.10;;;2.25;;
16385;SDS011;8302;51.154;4.456;2023-11-22T02:19:06;3.17;;;2.45;;
16385;SDS011;8302;51.154;4.456;2023-11-22T02:21:34;3.22;;;2.17;;
16385;SDS011;8302;51.154;4.456;2023-11-22T02:24:04;2.97;;;1.95;;
16385;SDS011;8302;51.154;4.456;2023-11-22T02:26:31;4.43;;;2.17;;
16385;SDS011;8302;51.154;4.456;2023-11-22T02:29:00;3.30;;;2.50;;
16385;SDS011;8302;51.154;4.456;2023-11-22T02:31:27;3.83;;;1.83;;
16385;SDS011;8302;51.154;4.456;2023-11-22T02:33:55;4.43;;;2.03;;
16385;SDS011;8302;51.154;4.456;2023-11-22T02:36:23;2.28;;;2.08;;
16385;SDS011;8302;51.154;4.456;2023-11-22T02:38:51;4.90;;;2.42;;
16385;SDS011;8302;51.154;4.456;2023-11-22T02:41:21;3.25;;;2.00;;
16385;SDS011;8302;51.154;4.456;2023-11-22T02:43:51;2.05;;;1.80;;
16385;SDS011;8302;51.154;4.456;2023-11-22T02:46:19;2.60;;;2.00;;
16385;SDS011;8302;51.154;4.456;2023-11-22T02:48:47;3.58;;;1.85;;
16385;SDS011;8302;51.154;4.456;2023-11-22T02:51:14;3.83;;;2.00;;
16385;SDS011;8302;51.154;4.456;2023-11-22T02:53:44;2.70;;;1.90;;
16385;SDS011;8302;51.154;4.456;2023-11-22T02:56:12;3.00;;;2.20;;
16385;SDS011;8302;51.154;4.456;2023-11-22T02:58:41;3.05;;;2.05;;
16385;SDS011;8302;51.154;4.456;2023-11-22T03:01:09;2.85;;;1.90;;
16385;SDS011;8302;51.154;4.456;2023-11-22T03:03:37;2.88;;;2.35;;
16385;SDS011;8302;51.154;4.456;2023-11-22T03:06:06;3.22;;;1.77;;
16385;SDS011;8302;51.154;4.456;2023-11-22T03:08:34;2.35;;;1.85;;
16385;SDS011;8302;51.154;4.456;2023-11-22T03:11:02;2.88;;;1.95;;
16385;SDS011;8302;51.154;4.456;2023-11-22T03:13:29;2.83;;;2.00;;
16385;SDS011;8302;51.154;4.456;2023-11-22T03:15:58;4.28;;;2.33;;
16385;SDS011;8302;51.154;4.456;2023-11-22T03:18:26;3.28;;;1.92;;
16385;SDS011;8302;51.154;4.456;2023-11-22T03:20:54;3.47;;;2.40;;
16385;SDS011;8302;51.154;4.456;2023-11-22T03:23:21;3.00;;;2.20;;
16385;SDS011;8302;51.154;4.456;2023-11-22T03:25:49;3.78;;;2.08;;
16385;SDS011;8302;51.154;4.456;2023-11-22T03:28:17;4.10;;;2.10;;
16385;SDS011;8302;51.154;4.456;2023-11-22T03:30:44;2.97;;;2.00;;
16385;SDS011;8302;51.154;4.456;2023-11-22T03:33:14;3.65;;;2.20;;
16385;SDS011;8302;51.154;4.456;2023-11-22T03:35:42;5.97;;;2.15;;
16385;SDS011;8302;51.154;4.456;2023-11-22T03:38:09;3.40;;;1.88;;
16385;SDS011;8302;51.154;4.456;2023-11-22T03:40:37;4.28;;;1.95;;
16385;SDS011;8302;51.154;4.456;2023-11-22T03:43:05;3.42;;;2.05;;
16385;SDS011;8302;51.154;4.456;2023-11-22T03:45:36;3.10;;;2.25;;
16385;SDS011;8302;51.154;4.456;2023-11-22T03:48:04;3.35;;;2.58;;
16385;SDS011;8302;51.154;4.456;2023-11-22T03:50:33;2.88;;;1.85;;
16385;SDS011;8302;51.154;4.456;2023-11-22T03:53:02;2.35;;;1.83;;
16385;SDS011;8302;51.154;4.456;2023-11-22T03:55:30;3.53;;;1.92;;
16385;SDS011;8302;51.154;4.456;2023-11-22T03:57:57;2.22;;;1.95;;
16385;SDS011;8302;51.154;4.456;2023-11-22T04:00:25;5.45;;;2.08;;
16385;SDS011;8302;51.154;4.456;2023-11-22T04:02:53;2.55;;;2.15;;
16385;SDS011;8302;51.154;4.456;2023-11-22T04:05:23;2.50;;;1.73;;
16385;SDS011;8302;51.154;4.456;2023-11-22T04:07:52;4.28;;;2.47;;
16385;SDS011;8302;51.154;4.456;2023-11-22T04:10:20;3.13;;;1.98;;
16385;SDS011;8302;51.154;4.456;2023-11-22T04:12:48;2.60;;;1.95;;
16385;SDS011;8302;51.154;4.456;2023-11-22T04:15:16;2.92;;;2.25;;
16385;SDS011;8302;51.154;4.456;2023-11-22T04:17:44;2.17;;;1.98;;
16385;SDS011;8302;51.154;4.456;2023-11-22T04:20:14;3.33;;;2.10;;
16385;SDS011;8302;51.154;4.456;2023-11-22T04:22:43;4.53;;;2.15;;
16385;SDS011;8302;51.154;4.456;2023-11-22T04:25:13;4.20;;;2.17;;
16385;SDS011;8302;51.154;4.456;2023-11-22T04:27:41;2.80;;;1.90;;
16385;SDS011;8302;51.154;4.456;2023-11-22T04:30:09;3.95;;;2.42;;
16385;SDS011;8302;51.154;4.456;2023-11-22T04:32:40;3.40;;;2.13;;
16385;SDS011;8302;51.154;4.456;2023-11-22T04:35:08;2.50;;;2.00;;
16385;SDS011;8302;51.154;4.456;2023-11-22T04:37:36;4.72;;;2.30;;
16385;SDS011;8302;51.154;4.456;2023-11-22T04:40:04;2.92;;;2.00;;
16385;SDS011;8302;51.154;4.456;2023-11-22T04:42:35;4.90;;;2.22;;
16385;SDS011;8302;51.154;4.456;2023-11-22T04:45:04;2.30;;;1.90;;
16385;SDS011;8302;51.154;4.456;2023-11-22T04:47:32;3.63;;;1.92;;
16385;SDS011;8302;51.154;4.456;2023-11-22T04:50:00;4.25;;;2.47;;
16385;SDS011;8302;51.154;4.456;2023-11-22T04:52:28;3.33;;;2.17;;
16385;SDS011;8302;51.154;4.456;2023-11-22T04:54:58;3.00;;;1.95;;
16385;SDS011;8302;51.154;4.456;2023-11-22T04:57:26;3.63;;;2.13;;
16385;SDS011;8302;51.154;4.456;2023-11-22T04:59:55;3.08;;;2.22;;
16385;SDS011;8302;51.154;4.456;2023-11-22T05:02:23;2.50;;;2.00;;
16385;SDS011;8302;51.154;4.456;2023-11-22T05:04:51;3.42;;;2.38;;
16385;SDS011;8302;51.154;4.456;2023-11-22T05:07:18;5.22;;;2.05;;
16385;SDS011;8302;51.154;4.456;2023-11-22T05:09:46;4.15;;;2.08;;
16385;SDS011;8302;51.154;4.456;2023-11-22T05:12:14;2.70;;;2.05;;
16385;SDS011;8302;51.154;4.456;2023-11-22T05:14:41;3.67;;;2.40;;
16385;SDS011;8302;51.154;4.456;2023-11-22T05:17:11;5.55;;;2.25;;
16385;SDS011;8302;51.154;4.456;2023-11-22T05:19:39;4.68;;;2.35;;
16385;SDS011;8302;51.154;4.456;2023-11-22T05:22:07;3.88;;;2.42;;
16385;SDS011;8302;51.154;4.456;2023-11-22T05:24:35;4.03;;;2.58;;
16385;SDS011;8302;51.154;4.456;2023-11-22T05:27:05;2.58;;;1.77;;
16385;SDS011;8302;51.154;4.456;2023-11-22T05:29:33;3.63;;;2.13;;
16385;SDS011;8302;51.154;4.456;2023-11-22T05:32:14;2.63;;;2.03;;
16385;SDS011;8302;51.154;4.456;2023-11-22T05:34:43;3.30;;;1.95;;
16385;SDS011;8302;51.154;4.456;2023-11-22T05:37:11;4.00;;;2.15;;
16385;SDS011;8302;51.154;4.456;2023-11-22T05:39:39;4.40;;;2.40;;
16385;SDS011;8302;51.154;4.456;2023-11-22T05:42:07;2.50;;;1.95;;
16385;SDS011;8302;51.154;4.456;2023-11-22T05:44:34;5.38;;;2.10;;
16385;SDS011;8302;51.154;4.456;2023-11-22T05:47:02;3.97;;;2.17;;
16385;SDS011;8302;51.154;4.456;2023-11-22T05:49:31;2.08;;;1.88;;
16385;SDS011;8302;51.154;4.456;2023-11-22T05:51:59;3.05;;;2.10;;
16385;SDS011;8302;51.154;4.456;2023-11-22T05:54:27;4.07;;;2.30;;
16385;SDS011;8302;51.154;4.456;2023-11-22T05:56:56;3.65;;;2.22;;
16385;SDS011;8302;51.154;4.456;2023-11-22T05:59:23;3.15;;;2.33;;
16385;SDS011;8302;51.154;4.456;2023-11-22T06:01:51;3.20;;;2.33;;
16385;SDS011;8302;51.154;4.456;2023-11-22T06:04:19;3.40;;;2.10;;
16385;SDS011;8302;51.154;4.456;2023-11-22T06:06:48;2.80;;;2.22;;
16385;SDS011;8302;51.154;4.456;2023-11-22T06:09:16;2.63;;;2.00;;
16385;SDS011;8302;51.154;4.456;2023-11-22T06:11:43;5.40;;;2.00;;
16385;SDS011;8302;51.154;4.456;2023-11-22T06:14:11;5.47;;;2.08;;
16385;SDS011;8302;51.154;4.456;2023-11-22T06:16:39;2.47;;;2.28;;
16385;SDS011;8302;51.154;4.456;2023-11-22T06:19:06;5.10;;;2.15;;
16385;SDS011;8302;51.154;4.456;2023-11-22T06:21:34;2.70;;;1.88;;
16385;SDS011;8302;51.154;4.456;2023-11-22T06:24:04;3.50;;;2.05;;
16385;SDS011;8302;51.154;4.456;2023-11-22T06:26:35;3.50;;;2.30;;
16385;SDS011;8302;51.154;4.456;2023-11-22T06:29:03;2.67;;;1.80;;
16385;SDS011;8302;51.154;4.456;2023-11-22T06:31:31;5.60;;;2.78;;
16385;SDS011;8302;51.154;4.456;2023-11-22T06:34:00;5.47;;;2.63;;
16385;SDS011;8302;51.154;4.456;2023-11-22T06:36:27;11.82;;;3.33;;
16385;SDS011;8302;51.154;4.456;2023-11-22T06:38:55;7.38;;;3.78;;
16385;SDS011;8302;51.154;4.456;2023-11-22T06:41:24;9.35;;;3.90;;
16385;SDS011;8302;51.154;4.456;2023-11-22T06:43:52;11.05;;;3.58;;
16385;SDS011;8302;51.154;4.456;2023-11-22T06:46:20;8.25;;;2.75;;
16385;SDS011;8302;51.154;4.456;2023-11-22T06:48:49;12.05;;;4.57;;
16385;SDS011;8302;51.154;4.456;2023-11-22T06:51:17;10.63;;;4.13;;
16385;SDS011;8302;51.154;4.456;2023-11-22T06:53:45;10.30;;;4.53;;
16385;SDS011;8302;51.154;4.456;2023-11-22T06:56:13;11.60;;;4.60;;
16385;SDS011;8302;51.154;4.456;2023-11-22T06:58:43;11.13;;;4.15;;
16385;SDS011;8302;51.154;4.456;2023-11-22T07:01:10;9.23;;;3.75;;
16385;SDS011;8302;51.154;4.456;2023-11-22T07:03:41;11.63;;;4.22;;
16385;SDS011;8302;51.154;4.456;2023-11-22T07:06:09;10.63;;;4.65;;
16385;SDS011;8302;51.154;4.456;2023-11-22T07:08:37;11.18;;;3.47;;
16385;SDS011;8302;51.154;4.456;2023-11-22T07:11:04;9.35;;;4.72;;
16385;SDS011;8302;51.154;4.456;2023-11-22T07:13:36;9.02;;;3.92;;
16385;SDS011;8302;51.154;4.456;2023-11-22T07:16:06;12.00;;;4.30;;
16385;SDS011;8302;51.154;4.456;2023-11-22T07:18:34;10.85;;;4.05;;
16385;SDS011;8302;51.154;4.456;2023-11-22T07:21:03;13.15;;;4.57;;
16385;SDS011;8302;51.154;4.456;2023-11-22T07:23:32;12.98;;;5.03;;
16385;SDS011;8302;51.154;4.456;2023-11-22T07:25:59;9.10;;;4.20;;
16385;SDS011;8302;51.154;4.456;2023-11-22T07:28:27;12.18;;;4.38;;
16385;SDS011;8302;51.154;4.456;2023-11-22T07:30:55;9.38;;;4.68;;
16385;SDS011;8302;51.154;4.456;2023-11-22T07:33:24;9.77;;;4.78;;
16385;SDS011;8302;51.154;4.456;2023-11-22T07:35:52;10.27;;;3.70;;
16385;SDS011;8302;51.154;4.456;2023-11-22T07:38:20;9.25;;;4.10;;
16385;SDS011;8302;51.154;4.456;2023-11-22T07:40:48;6.93;;;3.88;;
16385;SDS011;8302;51.154;4.456;2023-11-22T07:43:17;13.88;;;4.40;;
16385;SDS011;8302;51.154;4.456;2023-11-22T07:45:44;6.43;;;3.65;;
16385;SDS011;8302;51.154;4.456;2023-11-22T07:48:13;13.45;;;4.00;;
16385;SDS011;8302;51.154;4.456;2023-11-22T07:50:43;12.30;;;3.60;;
16385;SDS011;8302;51.154;4.456;2023-11-22T07:53:13;9.13;;;4.47;;
16385;SDS011;8302;51.154;4.456;2023-11-22T07:55:41;10.85;;;4.43;;
16385;SDS011;8302;51.154;4.456;2023-11-22T07:58:09;12.30;;;4.70;;
16385;SDS011;8302;51.154;4.456;2023-11-22T08:00:37;12.43;;;4.55;;
16385;SDS011;8302;51.154;4.456;2023-11-22T08:03:05;9.23;;;5.85;;
16385;SDS011;8302;51.154;4.456;2023-11-22T08:05:33;10.25;;;4.93;;
16385;SDS011;8302;51.154;4.456;2023-11-22T08:08:04;10.38;;;5.57;;
16385;SDS011;8302;51.154;4.456;2023-11-22T08:10:34;13.23;;;5.55;;
16385;SDS011;8302;51.154;4.456;2023-11-22T08:13:02;11.90;;;5.32;;
16385;SDS011;8302;51.154;4.456;2023-11-22T08:15:30;11.73;;;4.45;;
16385;SDS011;8302;51.154;4.456;2023-11-22T08:17:58;9.27;;;5.20;;
16385;SDS011;8302;51.154;4.456;2023-11-22T08:20:27;8.23;;;5.00;;
16385;SDS011;8302;51.154;4.456;2023-11-22T08:22:54;11.85;;;4.68;;
16385;SDS011;8302;51.154;4.456;2023-11-22T08:25:24;9.32;;;4.93;;
16385;SDS011;8302;51.154;4.456;2023-11-22T08:27:52;9.82;;;4.78;;
16385;SDS011;8302;51.154;4.456;2023-11-22T08:30:20;10.50;;;5.28;;
16385;SDS011;8302;51.154;4.456;2023-11-22T08:32:48;8.38;;;4.43;;
16385;SDS011;8302;51.154;4.456;2023-11-22T08:35:21;7.43;;;4.32;;
16385;SDS011;8302;51.154;4.456;2023-11-22T08:37:50;7.38;;;4.40;;
16385;SDS011;8302;51.154;4.456;2023-11-22T08:40:18;7.80;;;4.13;;
16385;SDS011;8302;51.154;4.456;2023-11-22T08:42:48;7.78;;;4.78;;
16385;SDS011;8302;51.154;4.456;2023-11-22T08:45:16;8.68;;;4.63;;
16385;SDS011;8302;51.154;4.456;2023-11-22T08:47:44;6.90;;;4.60;;
16385;SDS011;8302;51.154;4.456;2023-11-22T08:50:12;8.90;;;4.57;;
16385;SDS011;8302;51.154;4.456;2023-11-22T08:52:42;8.63;;;4.20;;
16385;SDS011;8302;51.154;4.456;2023-11-22T08:55:12;7.85;;;4.55;;
16385;SDS011;8302;51.154;4.456;2023-11-22T08:57:41;6.68;;;4.65;;
16385;SDS011;8302;51.154;4.456;2023-11-22T09:00:11;6.35;;;4.32;;
16385;SDS011;8302;51.154;4.456;2023-11-22T09:02:40;8.07;;;4.30;;
16385;SDS011;8302;51.154;4.456;2023-11-22T09:05:08;6.07;;;3.70;;
16385;SDS011;8302;51.154;4.456;2023-11-22T09:07:39;7.22;;;4.07;;
16385;SDS011;8302;51.154;4.456;2023-11-22T09:10:07;8.02;;;4.15;;
16385;SDS011;8302;51.154;4.456;2023-11-22T09:12:37;6.45;;;4.03;;
16385;SDS011;8302;51.154;4.456;2023-11-22T09:15:06;4.97;;;3.78;;
16385;SDS011;8302;51.154;4.456;2023-11-22T09:17:41;6.40;;;4.45;;
16385;SDS011;8302;51.154;4.456;2023-11-22T09:20:11;7.90;;;4.47;;
16385;SDS011;8302;51.154;4.456;2023-11-22T09:22:42;6.07;;;4.20;;
16385;SDS011;8302;51.154;4.456;2023-11-22T09:25:14;6.32;;;3.78;;
16385;SDS011;8302;51.154;4.456;2023-11-22T09:27:42;4.32;;;3.35;;
16385;SDS011;8302;51.154;4.456;2023-11-22T09:30:13;5.55;;;3.88;;
16385;SDS011;8302;51.154;4.456;2023-11-22T09:32:47;6.85;;;4.25;;
16385;SDS011;8302;51.154;4.456;2023-11-22T09:35:15;6.32;;;4.07;;
16385;SDS011;8302;51.154;4.456;2023-11-22T09:37:43;5.38;;;3.88;;
16385;SDS011;8302;51.154;4.456;2023-11-22T09:40:11;6.90;;;4.13;;
16385;SDS011;8302;51.154;4.456;2023-11-22T09:42:44;5.65;;;4.03;;
16385;SDS011;8302;51.154;4.456;2023-11-22T09:45:17;5.65;;;3.97;;
16385;SDS011;8302;51.154;4.456;2023-11-22T09:47:47;8.32;;;4.15;;
16385;SDS011;8302;51.154;4.456;2023-11-22T09:50:17;5.30;;;3.70;;
16385;SDS011;8302;51.154;4.456;2023-11-22T09:52:46;6.57;;;3.80;;
16385;SDS011;8302;51.154;4.456;2023-11-22T09:55:17;5.88;;;3.38;;
16385;SDS011;8302;51.154;4.456;2023-11-22T09:57:45;7.10;;;4.30;;
16385;SDS011;8302;51.154;4.456;2023-11-22T10:00:15;5.25;;;3.58;;
16385;SDS011;8302;51.154;4.456;2023-11-22T10:02:44;6.50;;;3.60;;
16385;SDS011;8302;51.154;4.456;2023-11-22T10:05:14;5.38;;;4.00;;
16385;SDS011;8302;51.154;4.456;2023-11-22T10:07:42;4.93;;;3.80;;
16385;SDS011;8302;51.154;4.456;2023-11-22T10:10:14;5.32;;;3.72;;
16385;SDS011;8302;51.154;4.456;2023-11-22T10:12:42;6.97;;;3.97;;
16385;SDS011;8302;51.154;4.456;2023-11-22T10:15:10;6.78;;;4.63;;
16385;SDS011;8302;51.154;4.456;2023-11-22T10:17:39;6.47;;;4.07;;
16385;SDS011;8302;51.154;4.456;2023-11-22T10:20:07;4.85;;;4.13;;
16385;SDS011;8302;51.154;4.456;2023-11-22T10:22:45;5.72;;;3.80;;
16385;SDS011;8302;51.154;4.456;2023-11-22T10:25:14;6.00;;;3.67;;
16385;SDS011;8302;51.154;4.456;2023-11-22T10:27:45;4.75;;;3.60;;
16385;SDS011;8302;51.154;4.456;2023-11-22T10:30:13;6.03;;;3.92;;
16385;SDS011;8302;51.154;4.456;2023-11-22T10:32:42;6.35;;;4.35;;
16385;SDS011;8302;51.154;4.456;2023-11-22T10:35:10;5.15;;;4.00;;
16385;SDS011;8302;51.154;4.456;2023-11-22T10:37:41;5.10;;;3.90;;
16385;SDS011;8302;51.154;4.456;2023-11-22T10:40:13;4.25;;;3.20;;
16385;SDS011;8302;51.154;4.456;2023-11-22T10:42:41;4.93;;;2.85;;
16385;SDS011;8302;51.154;4.456;2023-11-22T10:45:09;6.10;;;4.10;;
16385;SDS011;8302;51.154;4.456;2023-11-22T10:47:37;5.78;;;3.65;;
16385;SDS011;8302;51.154;4.456;2023-11-22T10:50:08;5.70;;;4.03;;
16385;SDS011;8302;51.154;4.456;2023-11-22T10:52:36;8.93;;;4.28;;
16385;SDS011;8302;51.154;4.456;2023-11-22T10:55:06;7.30;;;4.50;;
16385;SDS011;8302;51.154;4.456;2023-11-22T10:57:36;13.00;;;4.90;;
16385;SDS011;8302;51.154;4.456;2023-11-22T11:00:07;13.93;;;6.40;;
16385;SDS011;8302;51.154;4.456;2023-11-22T11:02:40;13.45;;;6.47;;
16385;SDS011;8302;51.154;4.456;2023-11-22T11:05:10;17.58;;;6.20;;
16385;SDS011;8302;51.154;4.456;2023-11-22T11:07:42;17.60;;;6.78;;
16385;SDS011;8302;51.154;4.456;2023-11-22T11:10:12;14.48;;;6.35;;
16385;SDS011;8302;51.154;4.456;2023-11-22T11:12:51;16.25;;;6.47;;
16385;SDS011;8302;51.154;4.456;2023-11-22T11:15:20;22.50;;;7.60;;
16385;SDS011;8302;51.154;4.456;2023-11-22T11:17:49;18.00;;;7.32;;
16385;SDS011;8302;51.154;4.456;2023-11-22T11:20:17;20.70;;;7.20;;
16385;SDS011;8302;51.154;4.456;2023-11-22T11:22:46;17.48;;;7.20;;
16385;SDS011;8302;51.154;4.456;2023-11-22T11:25:15;20.00;;;7.85;;
16385;SDS011;8302;51.154;4.456;2023-11-22T11:27:45;20.35;;;7.13;;
16385;SDS011;8302;51.154;4.456;2023-11-22T11:33:17;21.63;;;5.85;;
16385;SDS011;8302;51.154;4.456;2023-11-22T11:35:46;18.35;;;7.45;;
16385;SDS011;8302;51.154;4.456;2023-11-22T11:38:14;20.83;;;7.53;;
16385;SDS011;8302;51.154;4.456;2023-11-22T11:40:45;23.10;;;7.85;;
16385;SDS011;8302;51.154;4.456;2023-11-22T11:43:13;17.67;;;8.50;;
16385;SDS011;8302;51.154;4.456;2023-11-22T11:45:41;20.50;;;7.72;;
16385;SDS011;8302;51.154;4.456;2023-11-22T11:48:12;19.90;;;7.07;;
16385;SDS011;8302;51.154;4.456;2023-11-22T11:50:45;17.30;;;7.88;;
16385;SDS011;8302;51.154;4.456;2023-11-22T11:53:14;18.05;;;8.13;;
16385;SDS011;8302;51.154;4.456;2023-11-22T11:55:45;19.70;;;7.75;;
16385;SDS011;8302;51.154;4.456;2023-11-22T11:58:16;18.52;;;7.35;;
16385;SDS011;8302;51.154;4.456;2023-11-22T12:00:44;16.05;;;6.97;;
16385;SDS011;8302;51.154;4.456;2023-11-22T12:03:11;17.40;;;7.50;;
16385;SDS011;8302;51.154;4.456;2023-11-22T12:05:39;19.83;;;7.45;;
16385;SDS011;8302;51.154;4.456;2023-11-22T12:08:08;15.98;;;7.35;;
16385;SDS011;8302;51.154;4.456;2023-11-22T12:10:36;17.25;;;7.60;;
16385;SDS011;8302;51.154;4.456;2023-11-22T12:13:04;14.15;;;7.10;;
16385;SDS011;8302;51.154;4.456;2023-11-22T12:15:34;16.30;;;7.22;;
16385;SDS011;8302;51.154;4.456;2023-11-22T12:18:01;19.20;;;7.00;;
16385;SDS011;8302;51.154;4.456;2023-11-22T12:20:29;15.45;;;6.60;;
16385;SDS011;8302;51.154;4.456;2023-11-22T12:22:58;14.93;;;7.60;;
16385;SDS011;8302;51.154;4.456;2023-11-22T12:25:28;18.98;;;7.90;;
16385;SDS011;8302;51.154;4.456;2023-11-22T12:27:56;14.85;;;7.43;;
16385;SDS011;8302;51.154;4.456;2023-11-22T12:30:27;13.63;;;7.45;;
16385;SDS011;8302;51.154;4.456;2023-11-22T12:32:56;15.02;;;7.25;;
16385;SDS011;8302;51.154;4.456;2023-11-22T12:35:23;15.25;;;7.60;;
16385;SDS011;8302;51.154;4.456;2023-11-22T12:37:51;16.23;;;7.18;;
16385;SDS011;8302;51.154;4.456;2023-11-22T12:40:21;14.93;;;7.18;;
16385;SDS011;8302;51.154;4.456;2023-11-22T12:42:50;12.52;;;7.30;;
16385;SDS011;8302;51.154;4.456;2023-11-22T12:45:20;11.77;;;7.13;;
16385;SDS011;8302;51.154;4.456;2023-11-22T12:47:50;17.05;;;7.85;;
16385;SDS011;8302;51.154;4.456;2023-11-22T12:50:30;15.30;;;7.75;;
16385;SDS011;8302;51.154;4.456;2023-11-22T12:52:59;13.05;;;7.93;;
16385;SDS011;8302;51.154;4.456;2023-11-22T12:55:26;14.23;;;8.20;;
16385;SDS011;8302;51.154;4.456;2023-11-22T12:57:59;13.10;;;8.07;;
16385;SDS011;8302;51.154;4.456;2023-11-22T13:00:28;12.32;;;7.93;;
16385;SDS011;8302;51.154;4.456;2023-11-22T13:02:56;14.48;;;7.50;;
16385;SDS011;8302;51.154;4.456;2023-11-22T13:05:29;12.32;;;8.60;;
16385;SDS011;8302;51.154;4.456;2023-11-22T13:07:57;15.20;;;7.68;;
16385;SDS011;8302;51.154;4.456;2023-11-22T13:10:28;9.63;;;7.10;;
16385;SDS011;8302;51.154;4.456;2023-11-22T13:12:56;12.95;;;7.35;;
16385;SDS011;8302;51.154;4.456;2023-11-22T13:15:25;12.18;;;7.10;;
16385;SDS011;8302;51.154;4.456;2023-11-22T13:17:53;13.18;;;7.00;;
16385;SDS011;8302;51.154;4.456;2023-11-22T13:20:22;11.85;;;7.57;;
16385;SDS011;8302;51.154;4.456;2023-11-22T13:22:52;12.10;;;7.05;;
16385;SDS011;8302;51.154;4.456;2023-11-22T13:25:19;12.13;;;6.60;;
16385;SDS011;8302;51.154;4.456;2023-11-22T13:27:47;10.43;;;6.75;;
16385;SDS011;8302;51.154;4.456;2023-11-22T13:30:15;10.20;;;6.53;;
16385;SDS011;8302;51.154;4.456;2023-11-22T13:32:47;12.98;;;7.30;;
16385;SDS011;8302;51.154;4.456;2023-11-22T13:35:15;11.65;;;6.95;;
16385;SDS011;8302;51.154;4.456;2023-11-22T13:37:44;10.60;;;6.65;;
16385;SDS011;8302;51.154;4.456;2023-11-22T13:40:13;12.90;;;7.30;;
16385;SDS011;8302;51.154;4.456;2023-11-22T13:42:43;8.35;;;6.32;;
16385;SDS011;8302;51.154;4.456;2023-11-22T13:45:11;8.00;;;5.95;;
16385;SDS011;8302;51.154;4.456;2023-11-22T13:47:42;11.60;;;6.45;;
16385;SDS011;8302;51.154;4.456;2023-11-22T13:50:12;9.38;;;6.35;;
16385;SDS011;8302;51.154;4.456;2023-11-22T13:52:42;8.63;;;5.90;;
16385;SDS011;8302;51.154;4.456;2023-11-22T13:55:09;8.43;;;5.63;;
16385;SDS011;8302;51.154;4.456;2023-11-22T13:57:39;9.18;;;6.13;;
16385;SDS011;8302;51.154;4.456;2023-11-22T14:00:07;8.50;;;6.57;;
16385;SDS011;8302;51.154;4.456;2023-11-22T14:02:38;12.63;;;6.18;;
16385;SDS011;8302;51.154;4.456;2023-11-22T14:05:06;8.75;;;5.50;;
16385;SDS011;8302;51.154;4.456;2023-11-22T14:07:36;10.38;;;6.25;;
16385;SDS011;8302;51.154;4.456;2023-11-22T14:10:04;8.70;;;5.72;;
16385;SDS011;8302;51.154;4.456;2023-11-22T14:12:32;9.57;;;5.95;;
16385;SDS011;8302;51.154;4.456;2023-11-22T14:15:01;8.30;;;5.95;;
16385;SDS011;8302;51.154;4.456;2023-11-22T14:17:30;7.78;;;5.40;;
16385;SDS011;8302;51.154;4.456;2023-11-22T14:19:58;9.95;;;5.85;;
16385;SDS011;8302;51.154;4.456;2023-11-22T14:22:26;8.35;;;5.57;;
16385;SDS011;8302;51.154;4.456;2023-11-22T14:24:55;8.18;;;5.38;;
16385;SDS011;8302;51.154;4.456;2023-11-22T14:27:23;5.60;;;4.45;;
16385;SDS011;8302;51.154;4.456;2023-11-22T14:29:51;8.70;;;4.63;;
16385;SDS011;8302;51.154;4.456;2023-11-22T14:32:20;7.10;;;5.22;;
16385;SDS011;8302;51.154;4.456;2023-11-22T14:34:47;8.75;;;5.35;;
16385;SDS011;8302;51.154;4.456;2023-11-22T14:37:15;8.43;;;5.53;;
16385;SDS011;8302;51.154;4.456;2023-11-22T14:39:43;8.00;;;5.10;;
16385;SDS011;8302;51.154;4.456;2023-11-22T14:42:12;6.25;;;4.70;;
16385;SDS011;8302;51.154;4.456;2023-11-22T14:44:40;8.88;;;5.13;;
16385;SDS011;8302;51.154;4.456;2023-11-22T14:47:08;6.03;;;4.00;;
16385;SDS011;8302;51.154;4.456;2023-11-22T14:49:43;5.65;;;4.00;;
16385;SDS011;8302;51.154;4.456;2023-11-22T14:52:13;7.95;;;4.15;;
16385;SDS011;8302;51.154;4.456;2023-11-22T14:54:42;7.03;;;4.30;;
16385;SDS011;8302;51.154;4.456;2023-11-22T14:57:12;7.60;;;4.05;;
16385;SDS011;8302;51.154;4.456;2023-11-22T14:59:40;6.47;;;4.32;;
16385;SDS011;8302;51.154;4.456;2023-11-22T15:02:08;6.55;;;4.30;;
16385;SDS011;8302;51.154;4.456;2023-11-22T15:04:39;6.97;;;4.07;;
16385;SDS011;8302;51.154;4.456;2023-11-22T15:07:06;6.90;;;4.20;;
16385;SDS011;8302;51.154;4.456;2023-11-22T15:09:34;5.15;;;3.55;;